sensor_id;sensor_type;location;lat;lon;timestamp;temperature;humidity
27072;DHT22;14613;46.308;25.288;2023-03-02T00:01:59;9.30;77.80
27072;DHT22;14613;46.308;25.288;2023-03-02T00:04:28;9.20;77.80
27072;DHT22;14613;46.308;25.288;2023-03-02T00:06:59;9.20;77.80
27072;DHT22;14613;46.308;25.288;2023-03-02T00:09:25;9.20;77.80
27072;DHT22;14613;46.308;25.288;2023-03-02T00:11:52;9.20;77.90
27072;DHT22;14613;46.308;25.288;2023-03-02T00:14:17;9.20;77.80
27072;DHT22;14613;46.308;25.288;2023-03-02T00:16:43;9.20;77.80
27072;DHT22;14613;46.308;25.288;2023-03-02T00:19:09;9.20;77.70
27072;DHT22;14613;46.308;25.288;2023-03-02T00:21:35;9.10;77.80
27072;DHT22;14613;46.308;25.288;2023-03-02T00:24:00;9.10;77.90
27072;DHT22;14613;46.308;25.288;2023-03-02T00:26:26;9.00;78.00
27072;DHT22;14613;46.308;25.288;2023-03-02T00:28:52;9.00;78.10
27072;DHT22;14613;46.308;25.288;2023-03-02T00:31:18;9.00;78.30
27072;DHT22;14613;46.308;25.288;2023-03-02T00:33:43;9.00;78.30
27072;DHT22;14613;46.308;25.288;2023-03-02T00:36:20;8.90;78.30
27072;DHT22;14613;46.308;25.288;2023-03-02T00:38:47;8.90;78.30
27072;DHT22;14613;46.308;25.288;2023-03-02T00:41:14;8.90;78.40
27072;DHT22;14613;46.308;25.288;2023-03-02T00:43:40;8.80;78.40
27072;DHT22;14613;46.308;25.288;2023-03-02T00:46:14;8.80;78.40
27072;DHT22;14613;46.308;25.288;2023-03-02T00:48:41;8.90;78.40
27072;DHT22;14613;46.308;25.288;2023-03-02T00:51:07;8.80;78.10
27072;DHT22;14613;46.308;25.288;2023-03-02T00:53:34;8.80;78.10
27072;DHT22;14613;46.308;25.288;2023-03-02T00:56:00;8.80;78.10
27072;DHT22;14613;46.308;25.288;2023-03-02T00:58:28;8.70;78.30
27072;DHT22;14613;46.308;25.288;2023-03-02T01:00:54;8.60;78.30
27072;DHT22;14613;46.308;25.288;2023-03-02T01:03:20;8.50;78.40
27072;DHT22;14613;46.308;25.288;2023-03-02T01:05:46;8.50;78.40
27072;DHT22;14613;46.308;25.288;2023-03-02T01:08:12;8.50;78.50
27072;DHT22;14613;46.308;25.288;2023-03-02T01:10:39;8.50;78.50
27072;DHT22;14613;46.308;25.288;2023-03-02T01:13:05;8.50;78.50
27072;DHT22;14613;46.308;25.288;2023-03-02T01:15:32;8.40;78.40
27072;DHT22;14613;46.308;25.288;2023-03-02T01:17:59;8.40;78.40
27072;DHT22;14613;46.308;25.288;2023-03-02T01:20:25;8.40;78.40
27072;DHT22;14613;46.308;25.288;2023-03-02T01:22:51;8.40;78.30
27072;DHT22;14613;46.308;25.288;2023-03-02T01:25:17;8.40;78.20
27072;DHT22;14613;46.308;25.288;2023-03-02T01:27:44;8.40;78.10
27072;DHT22;14613;46.308;25.288;2023-03-02T01:30:11;8.40;78.10
27072;DHT22;14613;46.308;25.288;2023-03-02T01:32:37;8.40;78.10
27072;DHT22;14613;46.308;25.288;2023-03-02T01:35:03;8.30;78.10
27072;DHT22;14613;46.308;25.288;2023-03-02T01:37:29;8.30;77.90
27072;DHT22;14613;46.308;25.288;2023-03-02T01:39:55;8.30;77.90
27072;DHT22;14613;46.308;25.288;2023-03-02T01:42:21;8.30;77.90
27072;DHT22;14613;46.308;25.288;2023-03-02T01:44:50;8.30;77.80
27072;DHT22;14613;46.308;25.288;2023-03-02T01:47:26;8.20;77.80
27072;DHT22;14613;46.308;25.288;2023-03-02T01:49:58;8.20;77.90
27072;DHT22;14613;46.308;25.288;2023-03-02T01:52:26;8.10;77.90
27072;DHT22;14613;46.308;25.288;2023-03-02T01:54:55;8.10;77.80
27072;DHT22;14613;46.308;25.288;2023-03-02T01:57:26;8.00;77.90
27072;DHT22;14613;46.308;25.288;2023-03-02T01:59:58;7.90;78.10
27072;DHT22;14613;46.308;25.288;2023-03-02T02:02:25;7.80;78.20
27072;DHT22;14613;46.308;25.288;2023-03-02T02:04:52;7.80;78.50
27072;DHT22;14613;46.308;25.288;2023-03-02T02:07:19;7.70;78.50
27072;DHT22;14613;46.308;25.288;2023-03-02T02:09:47;7.70;78.70
27072;DHT22;14613;46.308;25.288;2023-03-02T02:12:20;7.70;78.60
27072;DHT22;14613;46.308;25.288;2023-03-02T02:14:47;7.60;78.50
27072;DHT22;14613;46.308;25.288;2023-03-02T02:17:14;7.60;78.40
27072;DHT22;14613;46.308;25.288;2023-03-02T02:19:50;7.50;78.40
27072;DHT22;14613;46.308;25.288;2023-03-02T02:22:28;7.40;78.40
27072;DHT22;14613;46.308;25.288;2023-03-02T02:25:00;7.30;78.60
27072;DHT22;14613;46.308;25.288;2023-03-02T02:27:27;7.20;78.70
27072;DHT22;14613;46.308;25.288;2023-03-02T02:30:00;7.10;78.70
27072;DHT22;14613;46.308;25.288;2023-03-02T02:32:30;7.10;79.00
27072;DHT22;14613;46.308;25.288;2023-03-02T02:35:22;7.00;79.10
27072;DHT22;14613;46.308;25.288;2023-03-02T02:37:53;7.00;79.20
27072;DHT22;14613;46.308;25.288;2023-03-02T02:40:55;6.90;79.20
27072;DHT22;14613;46.308;25.288;2023-03-02T02:43:22;6.90;79.20
27072;DHT22;14613;46.308;25.288;2023-03-02T02:45:51;6.90;79.20
27072;DHT22;14613;46.308;25.288;2023-03-02T02:48:20;6.80;79.20
27072;DHT22;14613;46.308;25.288;2023-03-02T02:50:47;6.80;79.20
27072;DHT22;14613;46.308;25.288;2023-03-02T02:53:19;6.80;79.10
27072;DHT22;14613;46.308;25.288;2023-03-02T02:55:48;6.70;79.10
27072;DHT22;14613;46.308;25.288;2023-03-02T02:58:35;6.70;79.10
27072;DHT22;14613;46.308;25.288;2023-03-02T03:01:04;6.70;79.20
27072;DHT22;14613;46.308;25.288;2023-03-02T03:03:36;6.60;79.20
27072;DHT22;14613;46.308;25.288;2023-03-02T03:06:06;6.50;79.30
27072;DHT22;14613;46.308;25.288;2023-03-02T03:08:59;6.50;79.30
27072;DHT22;14613;46.308;25.288;2023-03-02T03:11:28;6.40;79.30
27072;DHT22;14613;46.308;25.288;2023-03-02T03:14:09;6.40;79.30
27072;DHT22;14613;46.308;25.288;2023-03-02T03:16:36;6.30;79.40
27072;DHT22;14613;46.308;25.288;2023-03-02T03:19:10;6.30;79.60
27072;DHT22;14613;46.308;25.288;2023-03-02T03:21:37;6.20;79.70
27072;DHT22;14613;46.308;25.288;2023-03-02T03:24:03;6.20;79.80
27072;DHT22;14613;46.308;25.288;2023-03-02T03:26:29;6.10;79.80
27072;DHT22;14613;46.308;25.288;2023-03-02T03:28:55;6.00;79.90
27072;DHT22;14613;46.308;25.288;2023-03-02T03:31:25;6.00;80.00
27072;DHT22;14613;46.308;25.288;2023-03-02T03:33:53;6.00;80.10
27072;DHT22;14613;46.308;25.288;2023-03-02T03:36:19;5.90;80.10
27072;DHT22;14613;46.308;25.288;2023-03-02T03:38:45;5.90;80.30
27072;DHT22;14613;46.308;25.288;2023-03-02T03:41:10;5.80;80.30
27072;DHT22;14613;46.308;25.288;2023-03-02T03:43:37;5.80;81.20
27072;DHT22;14613;46.308;25.288;2023-03-02T03:46:03;5.70;80.40
27072;DHT22;14613;46.308;25.288;2023-03-02T03:48:29;5.60;80.50
27072;DHT22;14613;46.308;25.288;2023-03-02T03:50:56;5.50;80.70
27072;DHT22;14613;46.308;25.288;2023-03-02T03:53:22;5.40;80.70
27072;DHT22;14613;46.308;25.288;2023-03-02T03:55:48;5.40;80.90
27072;DHT22;14613;46.308;25.288;2023-03-02T03:58:15;5.30;81.00
27072;DHT22;14613;46.308;25.288;2023-03-02T04:00:40;5.30;81.00
27072;DHT22;14613;46.308;25.288;2023-03-02T04:03:06;5.20;80.90
27072;DHT22;14613;46.308;25.288;2023-03-02T04:05:33;5.20;81.80
27072;DHT22;14613;46.308;25.288;2023-03-02T04:07:59;5.10;80.90
27072;DHT22;14613;46.308;25.288;2023-03-02T04:10:27;5.10;80.90
27072;DHT22;14613;46.308;25.288;2023-03-02T04:12:54;5.00;80.90
27072;DHT22;14613;46.308;25.288;2023-03-02T04:15:20;5.00;81.00
27072;DHT22;14613;46.308;25.288;2023-03-02T04:17:46;4.90;81.20
27072;DHT22;14613;46.308;25.288;2023-03-02T04:20:13;4.90;81.30
27072;DHT22;14613;46.308;25.288;2023-03-02T04:22:43;4.90;81.50
27072;DHT22;14613;46.308;25.288;2023-03-02T04:25:11;4.90;81.50
27072;DHT22;14613;46.308;25.288;2023-03-02T04:27:37;4.80;81.40
27072;DHT22;14613;46.308;25.288;2023-03-02T04:30:04;4.80;81.50
27072;DHT22;14613;46.308;25.288;2023-03-02T04:32:30;4.80;81.50
27072;DHT22;14613;46.308;25.288;2023-03-02T04:34:56;4.80;81.50
27072;DHT22;14613;46.308;25.288;2023-03-02T04:37:22;4.80;81.50
27072;DHT22;14613;46.308;25.288;2023-03-02T04:39:48;4.80;81.40
27072;DHT22;14613;46.308;25.288;2023-03-02T04:42:19;4.80;81.40
27072;DHT22;14613;46.308;25.288;2023-03-02T04:44:46;4.80;81.40
27072;DHT22;14613;46.308;25.288;2023-03-02T04:47:15;4.80;81.40
27072;DHT22;14613;46.308;25.288;2023-03-02T04:49:41;4.80;81.40
27072;DHT22;14613;46.308;25.288;2023-03-02T04:52:06;4.80;81.40
27072;DHT22;14613;46.308;25.288;2023-03-02T04:54:32;4.70;81.50
27072;DHT22;14613;46.308;25.288;2023-03-02T04:56:58;4.70;81.70
27072;DHT22;14613;46.308;25.288;2023-03-02T04:59:26;4.70;81.90
27072;DHT22;14613;46.308;25.288;2023-03-02T05:01:57;4.60;81.90
27072;DHT22;14613;46.308;25.288;2023-03-02T05:04:24;4.60;82.10
27072;DHT22;14613;46.308;25.288;2023-03-02T05:06:50;4.60;82.10
27072;DHT22;14613;46.308;25.288;2023-03-02T05:09:16;4.60;82.10
27072;DHT22;14613;46.308;25.288;2023-03-02T05:11:42;4.60;82.20
27072;DHT22;14613;46.308;25.288;2023-03-02T05:14:10;4.60;82.40
27072;DHT22;14613;46.308;25.288;2023-03-02T05:16:39;4.60;82.40
27072;DHT22;14613;46.308;25.288;2023-03-02T05:19:07;4.70;82.40
27072;DHT22;14613;46.308;25.288;2023-03-02T05:21:34;4.70;82.40
27072;DHT22;14613;46.308;25.288;2023-03-02T05:23:59;4.70;82.30
27072;DHT22;14613;46.308;25.288;2023-03-02T05:26:25;4.70;82.30
27072;DHT22;14613;46.308;25.288;2023-03-02T05:28:51;4.80;82.30
27072;DHT22;14613;46.308;25.288;2023-03-02T05:33:45;4.80;82.50
27072;DHT22;14613;46.308;25.288;2023-03-02T05:36:10;4.80;82.60
27072;DHT22;14613;46.308;25.288;2023-03-02T05:38:36;4.80;82.70
27072;DHT22;14613;46.308;25.288;2023-03-02T05:41:02;4.90;83.00
27072;DHT22;14613;46.308;25.288;2023-03-02T05:43:28;4.90;83.00
27072;DHT22;14613;46.308;25.288;2023-03-02T05:45:54;5.00;83.00
27072;DHT22;14613;46.308;25.288;2023-03-02T05:48:25;5.10;83.10
27072;DHT22;14613;46.308;25.288;2023-03-02T05:50:51;5.10;83.20
27072;DHT22;14613;46.308;25.288;2023-03-02T05:53:17;5.30;83.70
27072;DHT22;14613;46.308;25.288;2023-03-02T05:55:43;5.50;83.90
27072;DHT22;14613;46.308;25.288;2023-03-02T05:58:11;5.70;84.00
27072;DHT22;14613;46.308;25.288;2023-03-02T06:00:39;5.90;83.90
27072;DHT22;14613;46.308;25.288;2023-03-02T06:03:05;6.20;83.80
27072;DHT22;14613;46.308;25.288;2023-03-02T06:05:31;6.40;83.60
27072;DHT22;14613;46.308;25.288;2023-03-02T06:07:57;6.50;83.40
27072;DHT22;14613;46.308;25.288;2023-03-02T06:10:23;6.70;83.40
27072;DHT22;14613;46.308;25.288;2023-03-02T06:12:49;6.80;83.20
27072;DHT22;14613;46.308;25.288;2023-03-02T06:15:15;7.00;83.10
27072;DHT22;14613;46.308;25.288;2023-03-02T06:17:40;7.20;83.00
27072;DHT22;14613;46.308;25.288;2023-03-02T06:20:07;7.30;82.80
27072;DHT22;14613;46.308;25.288;2023-03-02T06:22:53;7.40;82.50
27072;DHT22;14613;46.308;25.288;2023-03-02T06:25:21;7.60;82.40
27072;DHT22;14613;46.308;25.288;2023-03-02T06:27:48;7.70;82.30
27072;DHT22;14613;46.308;25.288;2023-03-02T06:30:21;7.90;82.30
27072;DHT22;14613;46.308;25.288;2023-03-02T06:32:47;8.00;82.20
27072;DHT22;14613;46.308;25.288;2023-03-02T06:35:13;8.20;82.30
27072;DHT22;14613;46.308;25.288;2023-03-02T06:37:39;8.40;82.20
27072;DHT22;14613;46.308;25.288;2023-03-02T06:40:06;8.60;82.10
27072;DHT22;14613;46.308;25.288;2023-03-02T06:42:36;8.90;81.80
27072;DHT22;14613;46.308;25.288;2023-03-02T06:45:02;9.10;81.20
27072;DHT22;14613;46.308;25.288;2023-03-02T06:47:28;9.20;80.60
27072;DHT22;14613;46.308;25.288;2023-03-02T06:49:54;9.20;80.10
27072;DHT22;14613;46.308;25.288;2023-03-02T06:52:21;9.30;80.00
27072;DHT22;14613;46.308;25.288;2023-03-02T06:54:46;9.30;79.90
27072;DHT22;14613;46.308;25.288;2023-03-02T06:57:12;9.40;79.80
27072;DHT22;14613;46.308;25.288;2023-03-02T06:59:38;9.50;79.60
27072;DHT22;14613;46.308;25.288;2023-03-02T07:02:04;9.50;79.40
27072;DHT22;14613;46.308;25.288;2023-03-02T07:04:30;9.60;79.50
27072;DHT22;14613;46.308;25.288;2023-03-02T07:06:57;9.70;79.70
27072;DHT22;14613;46.308;25.288;2023-03-02T07:09:23;9.90;79.40
27072;DHT22;14613;46.308;25.288;2023-03-02T07:11:49;10.20;79.50
27072;DHT22;14613;46.308;25.288;2023-03-02T07:14:14;10.40;79.20
27072;DHT22;14613;46.308;25.288;2023-03-02T07:16:40;10.60;78.20
27072;DHT22;14613;46.308;25.288;2023-03-02T07:19:11;10.70;77.70
27072;DHT22;14613;46.308;25.288;2023-03-02T07:21:37;10.60;76.90
27072;DHT22;14613;46.308;25.288;2023-03-02T07:24:03;10.60;76.80
27072;DHT22;14613;46.308;25.288;2023-03-02T07:26:29;10.60;76.60
27072;DHT22;14613;46.308;25.288;2023-03-02T07:28:55;10.60;76.30
27072;DHT22;14613;46.308;25.288;2023-03-02T07:31:24;10.60;75.80
27072;DHT22;14613;46.308;25.288;2023-03-02T07:33:50;10.60;75.50
27072;DHT22;14613;46.308;25.288;2023-03-02T07:36:16;10.70;75.30
27072;DHT22;14613;46.308;25.288;2023-03-02T07:38:42;10.60;75.10
27072;DHT22;14613;46.308;25.288;2023-03-02T07:41:08;10.60;75.20
27072;DHT22;14613;46.308;25.288;2023-03-02T07:43:35;10.70;75.60
27072;DHT22;14613;46.308;25.288;2023-03-02T07:46:03;10.90;75.00
27072;DHT22;14613;46.308;25.288;2023-03-02T07:48:30;11.00;74.40
27072;DHT22;14613;46.308;25.288;2023-03-02T07:51:03;11.10;74.40
27072;DHT22;14613;46.308;25.288;2023-03-02T07:53:29;11.40;74.20
27072;DHT22;14613;46.308;25.288;2023-03-02T07:55:55;11.60;73.80
27072;DHT22;14613;46.308;25.288;2023-03-02T07:58:21;11.70;73.40
27072;DHT22;14613;46.308;25.288;2023-03-02T08:00:47;11.80;72.80
27072;DHT22;14613;46.308;25.288;2023-03-02T08:03:13;11.90;72.80
27072;DHT22;14613;46.308;25.288;2023-03-02T08:05:39;12.10;72.40
27072;DHT22;14613;46.308;25.288;2023-03-02T08:08:05;12.20;71.80
27072;DHT22;14613;46.308;25.288;2023-03-02T08:10:33;12.20;71.00
27072;DHT22;14613;46.308;25.288;2023-03-02T08:12:59;12.10;70.90
27072;DHT22;14613;46.308;25.288;2023-03-02T08:15:25;12.20;71.80
27072;DHT22;14613;46.308;25.288;2023-03-02T08:17:51;12.30;71.20
27072;DHT22;14613;46.308;25.288;2023-03-02T08:20:17;12.40;70.90
27072;DHT22;14613;46.308;25.288;2023-03-02T08:22:43;12.50;70.30
27072;DHT22;14613;46.308;25.288;2023-03-02T08:25:09;12.60;70.20
27072;DHT22;14613;46.308;25.288;2023-03-02T08:27:35;12.80;70.10
27072;DHT22;14613;46.308;25.288;2023-03-02T08:30:00;12.90;69.80
27072;DHT22;14613;46.308;25.288;2023-03-02T08:32:26;13.10;69.90
27072;DHT22;14613;46.308;25.288;2023-03-02T08:34:52;13.30;69.80
27072;DHT22;14613;46.308;25.288;2023-03-02T08:37:18;13.40;69.30
27072;DHT22;14613;46.308;25.288;2023-03-02T08:39:44;13.60;69.20
27072;DHT22;14613;46.308;25.288;2023-03-02T08:42:10;13.80;68.90
27072;DHT22;14613;46.308;25.288;2023-03-02T08:44:36;13.90;68.70
27072;DHT22;14613;46.308;25.288;2023-03-02T08:47:01;14.10;68.70
27072;DHT22;14613;46.308;25.288;2023-03-02T08:49:27;14.20;68.50
27072;DHT22;14613;46.308;25.288;2023-03-02T08:51:53;14.40;68.20
27072;DHT22;14613;46.308;25.288;2023-03-02T08:54:21;14.50;67.80
27072;DHT22;14613;46.308;25.288;2023-03-02T08:56:47;14.60;67.60
27072;DHT22;14613;46.308;25.288;2023-03-02T08:59:13;14.60;67.20
27072;DHT22;14613;46.308;25.288;2023-03-02T09:01:39;14.60;66.90
27072;DHT22;14613;46.308;25.288;2023-03-02T09:04:07;14.60;66.90
27072;DHT22;14613;46.308;25.288;2023-03-02T09:06:36;14.70;67.30
27072;DHT22;14613;46.308;25.288;2023-03-02T09:09:02;14.80;67.50
27072;DHT22;14613;46.308;25.288;2023-03-02T09:11:28;14.90;67.20
27072;DHT22;14613;46.308;25.288;2023-03-02T09:13:54;15.00;67.10
27072;DHT22;14613;46.308;25.288;2023-03-02T09:16:21;15.10;66.70
27072;DHT22;14613;46.308;25.288;2023-03-02T09:18:48;15.20;66.40
27072;DHT22;14613;46.308;25.288;2023-03-02T09:21:14;15.30;66.20
27072;DHT22;14613;46.308;25.288;2023-03-02T09:23:40;15.30;66.30
27072;DHT22;14613;46.308;25.288;2023-03-02T09:26:06;15.40;66.40
27072;DHT22;14613;46.308;25.288;2023-03-02T09:28:33;15.50;66.20
27072;DHT22;14613;46.308;25.288;2023-03-02T09:31:02;15.50;65.80
27072;DHT22;14613;46.308;25.288;2023-03-02T09:33:29;15.60;65.50
27072;DHT22;14613;46.308;25.288;2023-03-02T09:35:55;15.60;65.30
27072;DHT22;14613;46.308;25.288;2023-03-02T09:38:22;15.60;65.40
27072;DHT22;14613;46.308;25.288;2023-03-02T09:40:57;15.70;65.70
27072;DHT22;14613;46.308;25.288;2023-03-02T09:43:40;15.90;65.90
27072;DHT22;14613;46.308;25.288;2023-03-02T09:46:22;16.00;66.00
27072;DHT22;14613;46.308;25.288;2023-03-02T09:52:05;16.20;65.30
27072;DHT22;14613;46.308;25.288;2023-03-02T09:54:34;16.20;65.20
27072;DHT22;14613;46.308;25.288;2023-03-02T09:57:02;16.10;65.40
27072;DHT22;14613;46.308;25.288;2023-03-02T09:59:36;16.10;65.60
27072;DHT22;14613;46.308;25.288;2023-03-02T10:04:55;16.10;65.90
27072;DHT22;14613;46.308;25.288;2023-03-02T10:09:54;16.30;65.80
27072;DHT22;14613;46.308;25.288;2023-03-02T10:21:10;16.30;65.70
27072;DHT22;14613;46.308;25.288;2023-03-02T10:28:47;16.30;65.20
27072;DHT22;14613;46.308;25.288;2023-03-02T10:31:24;16.30;65.50
27072;DHT22;14613;46.308;25.288;2023-03-02T10:33:50;16.30;65.40
27072;DHT22;14613;46.308;25.288;2023-03-02T10:36:25;16.40;65.60
27072;DHT22;14613;46.308;25.288;2023-03-02T10:38:53;16.50;65.50
27072;DHT22;14613;46.308;25.288;2023-03-02T10:41:24;16.50;64.70
27072;DHT22;14613;46.308;25.288;2023-03-02T10:43:54;16.50;64.80
27072;DHT22;14613;46.308;25.288;2023-03-02T10:46:21;16.60;64.80
27072;DHT22;14613;46.308;25.288;2023-03-02T10:48:52;16.70;64.60
27072;DHT22;14613;46.308;25.288;2023-03-02T10:51:27;16.70;64.40
27072;DHT22;14613;46.308;25.288;2023-03-02T10:54:12;16.70;63.90
27072;DHT22;14613;46.308;25.288;2023-03-02T10:56:41;16.60;63.10
27072;DHT22;14613;46.308;25.288;2023-03-02T11:02:20;16.70;63.80
27072;DHT22;14613;46.308;25.288;2023-03-02T11:07:34;16.80;62.80
27072;DHT22;14613;46.308;25.288;2023-03-02T11:12:48;16.80;62.80
27072;DHT22;14613;46.308;25.288;2023-03-02T11:15:21;16.90;63.00
27072;DHT22;14613;46.308;25.288;2023-03-02T11:20:52;17.10;63.00
27072;DHT22;14613;46.308;25.288;2023-03-02T11:27:44;17.20;62.80
27072;DHT22;14613;46.308;25.288;2023-03-02T11:32:26;17.40;62.60
27072;DHT22;14613;46.308;25.288;2023-03-02T11:37:27;17.50;62.20
27072;DHT22;14613;46.308;25.288;2023-03-02T11:40:23;17.50;62.00
27072;DHT22;14613;46.308;25.288;2023-03-02T11:42:52;17.50;61.70
27072;DHT22;14613;46.308;25.288;2023-03-02T11:45:25;17.50;61.90
27072;DHT22;14613;46.308;25.288;2023-03-02T11:48:08;17.70;61.80
27072;DHT22;14613;46.308;25.288;2023-03-02T11:50:59;17.60;60.80
27072;DHT22;14613;46.308;25.288;2023-03-02T11:56:06;17.50;60.60
27072;DHT22;14613;46.308;25.288;2023-03-02T11:58:33;17.50;60.70
27072;DHT22;14613;46.308;25.288;2023-03-02T12:01:01;17.50;61.00
27072;DHT22;14613;46.308;25.288;2023-03-02T12:08:37;17.50;60.50
27072;DHT22;14613;46.308;25.288;2023-03-02T12:13:42;17.50;60.90
27072;DHT22;14613;46.308;25.288;2023-03-02T12:16:39;17.40;59.70
27072;DHT22;14613;46.308;25.288;2023-03-02T12:19:13;17.40;59.50
27072;DHT22;14613;46.308;25.288;2023-03-02T12:22:00;17.30;59.80
27072;DHT22;14613;46.308;25.288;2023-03-02T12:24:32;17.30;60.10
27072;DHT22;14613;46.308;25.288;2023-03-02T12:32:24;17.50;60.30
27072;DHT22;14613;46.308;25.288;2023-03-02T12:34:57;17.50;60.40
27072;DHT22;14613;46.308;25.288;2023-03-02T12:37:30;17.50;61.50
27072;DHT22;14613;46.308;25.288;2023-03-02T12:40:31;17.50;60.70
27072;DHT22;14613;46.308;25.288;2023-03-02T12:51:56;17.50;59.70
27072;DHT22;14613;46.308;25.288;2023-03-02T12:54:25;17.50;60.20
27072;DHT22;14613;46.308;25.288;2023-03-02T12:57:15;17.50;60.40
27072;DHT22;14613;46.308;25.288;2023-03-02T12:59:42;17.50;60.20
27072;DHT22;14613;46.308;25.288;2023-03-02T13:02:29;17.40;59.80
27072;DHT22;14613;46.308;25.288;2023-03-02T13:09:58;17.20;60.10
27072;DHT22;14613;46.308;25.288;2023-03-02T13:12:26;17.20;60.40
27072;DHT22;14613;46.308;25.288;2023-03-02T13:14:55;17.20;60.70
27072;DHT22;14613;46.308;25.288;2023-03-02T13:17:28;17.10;60.70
27072;DHT22;14613;46.308;25.288;2023-03-02T13:19:57;17.20;60.50
27072;DHT22;14613;46.308;25.288;2023-03-02T13:22:24;17.20;60.10
27072;DHT22;14613;46.308;25.288;2023-03-02T13:25:01;17.20;59.70
27072;DHT22;14613;46.308;25.288;2023-03-02T13:27:28;17.10;59.90
27072;DHT22;14613;46.308;25.288;2023-03-02T13:29:54;17.10;60.00
27072;DHT22;14613;46.308;25.288;2023-03-02T13:32:26;17.10;60.00
27072;DHT22;14613;46.308;25.288;2023-03-02T13:34:56;17.10;59.90
27072;DHT22;14613;46.308;25.288;2023-03-02T13:37:34;17.00;60.00
27072;DHT22;14613;46.308;25.288;2023-03-02T13:40:50;17.00;60.30
27072;DHT22;14613;46.308;25.288;2023-03-02T13:42:50;17.00;60.60
27072;DHT22;14613;46.308;25.288;2023-03-02T13:45:31;17.00;60.40
27072;DHT22;14613;46.308;25.288;2023-03-02T13:48:12;17.00;60.40
27072;DHT22;14613;46.308;25.288;2023-03-02T13:50:59;16.90;60.20
27072;DHT22;14613;46.308;25.288;2023-03-02T13:53:27;16.80;60.20
27072;DHT22;14613;46.308;25.288;2023-03-02T13:55:55;16.80;60.40
27072;DHT22;14613;46.308;25.288;2023-03-02T13:58:23;16.80;60.60
27072;DHT22;14613;46.308;25.288;2023-03-02T14:00:50;16.80;60.30
27072;DHT22;14613;46.308;25.288;2023-03-02T14:03:28;16.70;60.10
27072;DHT22;14613;46.308;25.288;2023-03-02T14:05:56;16.70;60.10
27072;DHT22;14613;46.308;25.288;2023-03-02T14:08:23;16.70;60.20
27072;DHT22;14613;46.308;25.288;2023-03-02T14:10:51;16.70;60.10
27072;DHT22;14613;46.308;25.288;2023-03-02T14:13:22;16.60;60.00
27072;DHT22;14613;46.308;25.288;2023-03-02T14:15:51;16.60;60.10
27072;DHT22;14613;46.308;25.288;2023-03-02T14:18:32;16.60;60.00
27072;DHT22;14613;46.308;25.288;2023-03-02T14:21:00;16.50;59.90
27072;DHT22;14613;46.308;25.288;2023-03-02T14:23:26;16.50;60.10
27072;DHT22;14613;46.308;25.288;2023-03-02T14:25:53;16.50;60.30
27072;DHT22;14613;46.308;25.288;2023-03-02T14:28:29;16.40;60.30
27072;DHT22;14613;46.308;25.288;2023-03-02T14:30:57;16.40;60.30
27072;DHT22;14613;46.308;25.288;2023-03-02T14:33:23;16.30;60.30
27072;DHT22;14613;46.308;25.288;2023-03-02T14:35:51;16.30;60.20
27072;DHT22;14613;46.308;25.288;2023-03-02T14:38:22;16.30;60.20
27072;DHT22;14613;46.308;25.288;2023-03-02T14:40:49;16.30;60.20
27072;DHT22;14613;46.308;25.288;2023-03-02T14:43:15;16.30;60.20
27072;DHT22;14613;46.308;25.288;2023-03-02T14:45:43;16.20;60.20
27072;DHT22;14613;46.308;25.288;2023-03-02T14:48:09;16.20;60.20
27072;DHT22;14613;46.308;25.288;2023-03-02T14:50:38;16.10;60.10
27072;DHT22;14613;46.308;25.288;2023-03-02T14:53:09;16.10;60.00
27072;DHT22;14613;46.308;25.288;2023-03-02T14:55:39;16.00;60.00
27072;DHT22;14613;46.308;25.288;2023-03-02T14:58:18;16.00;59.90
27072;DHT22;14613;46.308;25.288;2023-03-02T15:00:45;15.90;60.00
27072;DHT22;14613;46.308;25.288;2023-03-02T15:03:16;15.80;60.00
27072;DHT22;14613;46.308;25.288;2023-03-02T15:05:44;15.70;60.10
27072;DHT22;14613;46.308;25.288;2023-03-02T15:08:14;15.70;60.20
27072;DHT22;14613;46.308;25.288;2023-03-02T15:10:41;15.60;60.20
27072;DHT22;14613;46.308;25.288;2023-03-02T15:13:10;15.50;60.20
27072;DHT22;14613;46.308;25.288;2023-03-02T15:15:39;15.50;60.20
27072;DHT22;14613;46.308;25.288;2023-03-02T15:18:05;15.40;60.20
27072;DHT22;14613;46.308;25.288;2023-03-02T15:20:31;15.30;60.20
27072;DHT22;14613;46.308;25.288;2023-03-02T15:22:58;15.20;60.20
27072;DHT22;14613;46.308;25.288;2023-03-02T15:25:24;15.20;60.30
27072;DHT22;14613;46.308;25.288;2023-03-02T15:27:51;15.00;60.30
27072;DHT22;14613;46.308;25.288;2023-03-02T15:30:18;14.90;60.40
27072;DHT22;14613;46.308;25.288;2023-03-02T15:32:43;14.80;60.50
27072;DHT22;14613;46.308;25.288;2023-03-02T15:35:10;14.80;60.60
27072;DHT22;14613;46.308;25.288;2023-03-02T15:37:37;14.70;60.80
27072;DHT22;14613;46.308;25.288;2023-03-02T15:40:04;14.60;60.90
27072;DHT22;14613;46.308;25.288;2023-03-02T15:42:30;14.50;60.90
27072;DHT22;14613;46.308;25.288;2023-03-02T15:44:56;14.40;61.00
27072;DHT22;14613;46.308;25.288;2023-03-02T15:47:22;14.30;61.10
27072;DHT22;14613;46.308;25.288;2023-03-02T15:49:48;14.20;61.20
27072;DHT22;14613;46.308;25.288;2023-03-02T15:52:13;14.10;61.30
27072;DHT22;14613;46.308;25.288;2023-03-02T15:54:39;14.00;61.40
27072;DHT22;14613;46.308;25.288;2023-03-02T15:57:06;13.90;61.60
27072;DHT22;14613;46.308;25.288;2023-03-02T15:59:32;13.80;61.70
27072;DHT22;14613;46.308;25.288;2023-03-02T16:01:58;13.70;61.80
27072;DHT22;14613;46.308;25.288;2023-03-02T16:04:28;13.70;62.00
27072;DHT22;14613;46.308;25.288;2023-03-02T16:06:54;13.60;62.10
27072;DHT22;14613;46.308;25.288;2023-03-02T16:09:22;13.40;62.20
27072;DHT22;14613;46.308;25.288;2023-03-02T16:11:48;13.40;62.40
27072;DHT22;14613;46.308;25.288;2023-03-02T16:14:14;13.30;62.60
27072;DHT22;14613;46.308;25.288;2023-03-02T16:16:41;13.20;62.70
27072;DHT22;14613;46.308;25.288;2023-03-02T16:19:10;13.10;62.80
27072;DHT22;14613;46.308;25.288;2023-03-02T16:21:37;13.00;63.00
27072;DHT22;14613;46.308;25.288;2023-03-02T16:24:03;12.80;63.20
27072;DHT22;14613;46.308;25.288;2023-03-02T16:26:31;12.70;63.40
27072;DHT22;14613;46.308;25.288;2023-03-02T16:28:57;12.50;63.70
27072;DHT22;14613;46.308;25.288;2023-03-02T16:31:23;12.40;63.90
27072;DHT22;14613;46.308;25.288;2023-03-02T16:33:53;12.30;64.20
27072;DHT22;14613;46.308;25.288;2023-03-02T16:36:20;12.10;64.40
27072;DHT22;14613;46.308;25.288;2023-03-02T16:38:47;11.90;64.70
27072;DHT22;14613;46.308;25.288;2023-03-02T16:41:16;11.80;65.00
27072;DHT22;14613;46.308;25.288;2023-03-02T16:43:50;11.70;65.10
27072;DHT22;14613;46.308;25.288;2023-03-02T16:46:18;11.60;65.20
27072;DHT22;14613;46.308;25.288;2023-03-02T16:48:44;11.50;65.50